Accueil
METAR-TAF:

METAR-TAF

Aéroports :

Aéroport international Roi-Abdelaziz

Djeddah, Arabie saoudite

latitude: 21-42N, longitude: 039-11E, altitude: 15 m

Observation

Le bulletin a été fait il y a 16 minutes, à 17:00 UTC
Vent 14 kt de est/nord-est
Température 30°C
Humidité 31%
Pression 1010 hPa
Visibilité 10 km ou plus
pas de nuages en-dessous de 1500 mètres et pas de cumulonimbus.

METAR: OEJN 211700Z 06014KT CAVOK 30/11 Q1010 NOSIG

Heure: 20:16 (17:16 UTC)

Prévision

Le bulletin a été fait il y a 6 heures et 16 minutes, à 11:00 UTC
Prévision valable du 21 à 12 UTC au 22 à 18 UTC
Vent 8 kt de est/nord-est avec des rafales jusqu'à 18 kt
Visibilité: 8000 m
Temporairement
du 21 à 12 UTC au 21 à 18 UTC
Visibilité: 4000 m
poussière généralisée, Chasse-poussière élevée

TAF: OEJN 211100Z 2112/2218 06008G18KT 8000 NSC TEMPO 2112/2118 4000 DU BLDU

Observations et prévisions météorologiques de plus de 4000 aéroports (messages METAR et TAF).

Les stations disponibles sont représentées par des disques jaunes et rouges sur la carte.

Passer la souris dessus pour voir le nom de la station.

Cliquer dessus pour voir les observations et prévisions météorologiques.

Pour changer de carte: cliquez sur les boutons verts avec une croix noire pour zoomer, sur le bouton vert avec un tiret pour effectuer un zoom arrière, ou sur les flèches vertes pour les cartes adjacentes.


METAR-TAF: